Time;durP1;ratioP1;P1;durP2;ratioP2;P2;SDS_P1;SDS_P2;PMS_P1;PMS_P2;Temp;Humidity;BMP_temperature;BMP_pressure;BME280_temperature;BME280_humidity;BME280_pressure;Samples;Min_cycle;Max_cycle;Signal;HPM_P1;HPM_P2
2023/12/31 00:02:06;;;;;;;;;;;;;;;7.14;100.00;100094.97;4940107;29;19929;-77
2023/12/31 00:04:54;;;;;;;;;;;;;;;7.07;100.00;100089.53;4945542;29;20426;-76
2023/12/31 00:07:20;;;;;;;;;;;;;;;7.06;100.00;100087.06;4954995;29;19925;-76
2023/12/31 00:09:56;;;;;;;;;;;;;;;6.96;100.00;100087.41;4938066;29;19923;-76
2023/12/31 00:12:51;;;;;;;;;;;;;;;6.90;100.00;100086.31;4935726;29;20290;-76
2023/12/31 00:18:08;;;;;;;;;;;;;;;6.81;100.00;100055.34;4906849;29;19951;-76
2023/12/31 00:20:52;;;;;;;;;;;;;;;6.73;100.00;100066.19;4937038;29;19924;-76
2023/12/31 00:26:34;;;;;;;;;;;;;;;6.75;100.00;100066.84;4947806;29;19930;-76
2023/12/31 00:29:17;;;;;;;;;;;;;;;6.77;100.00;100073.63;4955557;29;19918;-76
2023/12/31 00:35:37;;;;;;;;;;;;;;;6.92;100.00;100070.06;4884331;29;19937;-77
2023/12/31 00:38:40;;;;;;;;;;;;;;;7.07;100.00;100062.78;4877964;29;20055;-76
2023/12/31 00:47:28;;;;;;;;;;;;;;;7.25;100.00;100054.28;4841398;29;19948;-75
2023/12/31 00:50:06;;;;;;;;;;;;;;;7.21;100.00;100047.66;4843556;29;19931;-76
2023/12/31 00:55:38;;;;;;;;;;;;;;;7.24;100.00;100038.41;4807290;30;19925;-76
2023/12/31 00:58:38;;;;;;;;;;;;;;;7.27;100.00;100024.63;4808896;23;19925;-77
2023/12/31 01:01:43;;;;;;;;;;;;;;;7.27;100.00;100024.63;4877278;29;19928;-77
2023/12/31 01:04:41;;;;;;;;;;;;;;;7.29;100.00;100014.56;4883635;29;19939;-76
2023/12/31 01:07:06;;;;;;;;;;;;;;;7.33;100.00;100009.63;4882185;29;19947;-76
2023/12/31 01:09:40;;;;;;;;;;;;;;;7.28;100.00;100005.72;4878901;29;19939;-75
2023/12/31 01:15:26;;;;;;;;;;;;;;;7.31;100.00;99987.59;4883534;29;19931;-75
2023/12/31 01:18:06;;;;;;;;;;;;;;;7.36;100.00;99983.31;4877678;29;19943;-76
2023/12/31 01:23:58;;;;;;;;;;;;;;;7.37;100.00;99976.94;4861975;29;20027;-76
2023/12/31 01:33:08;;;;;;;;;;;;;;;7.45;100.00;99957.19;4810810;29;19932;-75
2023/12/31 01:35:36;;;;;;;;;;;;;;;7.46;100.00;99958.00;4803481;29;19927;-75
2023/12/31 01:38:18;;;;;;;;;;;;;;;7.53;100.00;99942.81;4772072;29;19965;-76
2023/12/31 01:41:11;;;;;;;;;;;;;;;;;;;;;
2023/12/31 01:43:58;;;;;;;;;;;;;;;7.46;100.00;99934.75;4786740;29;19940;-76
2023/12/31 01:59:32;;;;;;;;;;;;;;;7.25;100.00;99911.56;4797179;29;20015;-76
2023/12/31 02:02:31;;;;;;;;;;;;;;;7.18;100.00;99908.03;4802582;29;20030;-76
2023/12/31 02:16:51;;;;;;;;;;;;;;;7.04;100.00;99889.25;4869117;29;19952;-76
2023/12/31 02:25:04;;;;;;;;;;;;;;;6.92;100.00;99872.06;4906700;23;20312;-76
2023/12/31 02:27:39;;;;;;;;;;;;;;;6.89;100.00;99861.75;4899444;29;19935;-76
2023/12/31 02:30:04;;;;;;;;;;;;;;;6.93;100.00;99857.66;4899260;29;20002;-76
2023/12/31 02:32:30;;;;;;;;;;;;;;;6.92;100.00;99845.31;4899048;29;20418;-74
2023/12/31 02:35:16;;;;;;;;;;;;;;;6.93;100.00;99852.31;4898853;29;19924;-76
2023/12/31 02:37:40;;;;;;;;;;;;;;;6.92;100.00;99842.63;4898907;29;20288;-76
2023/12/31 02:40:12;;;;;;;;;;;;;;;6.89;100.00;99833.16;4898520;29;19923;-75
2023/12/31 02:42:43;;;;;;;;;;;;;;;6.83;100.00;99833.94;4898987;29;19923;-75
2023/12/31 02:45:14;;;;;;;;;;;;;;;6.87;100.00;99821.03;4899711;29;20359;-75
2023/12/31 02:47:40;;;;;;;;;;;;;;;6.90;100.00;99821.44;4900229;29;19927;-74
2023/12/31 02:50:19;;;;;;;;;;;;;;;6.92;100.00;99816.72;4860711;29;20277;-75
2023/12/31 02:52:57;;;;;;;;;;;;;;;6.91;100.00;99806.19;4910335;23;19924;-75
2023/12/31 02:55:38;;;;;;;;;;;;;;;6.86;100.00;99803.31;4949500;29;19942;-75
2023/12/31 02:58:03;;;;;;;;;;;;;;;6.85;100.00;99788.28;4942933;29;20313;-76
2023/12/31 03:00:38;;;;;;;;;;;;;;;6.86;100.00;99803.31;4937089;29;19926;-76
2023/12/31 03:03:15;;;;;;;;;;;;;;;6.87;100.00;99794.28;4935744;29;19923;-76
2023/12/31 03:08:05;;;;;;;;;;;;;;;6.91;100.00;99780.28;5071324;23;19982;-76
2023/12/31 03:10:31;;;;;;;;;;;;;;;6.91;100.00;99774.09;4898174;29;20368;-76
2023/12/31 03:12:56;;;;;;;;;;;;;;;6.94;100.00;99781.72;4881902;29;20347;-76
2023/12/31 03:15:21;;;;;;;;;;;;;;;6.86;100.00;99769.34;4898234;29;19924;-76
2023/12/31 03:17:46;;;;;;;;;;;;;;;6.87;100.00;99762.97;4897794;29;19935;-76
2023/12/31 03:20:12;;;;;;;;;;;;;;;6.93;100.00;99756.00;4899184;29;19924;-76
2023/12/31 03:22:37;;;;;;;;;;;;;;;6.90;100.00;99753.72;4898216;29;19981;-76
2023/12/31 03:25:02;;;;;;;;;;;;;;;6.88;100.00;99755.78;4897549;29;19967;-76
2023/12/31 03:27:28;;;;;;;;;;;;;;;6.90;100.00;99746.53;4898759;29;19962;-76
2023/12/31 03:29:53;;;;;;;;;;;;;;;6.83;100.00;99746.50;4897461;29;19923;-76
2023/12/31 03:32:18;;;;;;;;;;;;;;;6.91;99.19;99750.84;4880602;29;19946;-76
2023/12/31 03:34:44;;;;;;;;;;;;;;;6.92;99.31;99744.50;4901078;29;19923;-76
2023/12/31 03:37:09;;;;;;;;;;;;;;;6.97;98.85;99741.19;4898924;29;19923;-76
2023/12/31 03:39:34;;;;;;;;;;;;;;;6.96;99.13;99736.88;4897648;29;19923;-76
2023/12/31 03:41:59;;;;;;;;;;;;;;;7.01;98.06;99737.09;4899101;29;19926;-76
2023/12/31 03:44:26;;;;;;;;;;;;;;;6.96;98.01;99728.84;4898093;29;19923;-76
2023/12/31 03:46:54;;;;;;;;;;;;;;;7.00;97.58;99722.06;4896870;29;19942;-76
2023/12/31 03:49:45;;;;;;;;;;;;;;;7.04;97.29;99715.31;4909537;23;19974;-76
2023/12/31 03:52:20;;;;;;;;;;;;;;;6.97;97.26;99703.75;4931839;29;19926;-76
2023/12/31 03:55:00;;;;;;;;;;;;;;;6.98;96.29;99703.53;4922232;29;19978;-76
2023/12/31 03:57:26;;;;;;;;;;;;;;;7.04;96.99;99683.19;4922599;29;19923;-76
2023/12/31 03:59:52;;;;;;;;;;;;;;;7.00;96.18;99679.25;4923994;29;20026;-75
2023/12/31 04:02:36;;;;;;;;;;;;;;;7.00;95.95;99671.22;4944030;23;19974;-76
2023/12/31 04:05:14;;;;;;;;;;;;;;;7.05;95.77;99665.25;4944693;28;19918;-76
2023/12/31 04:07:45;;;;;;;;;;;;;;;6.99;96.04;99656.19;4954981;29;19919;-75
2023/12/31 04:10:36;;;;;;;;;;;;;;;6.94;96.11;99651.47;4936887;29;20367;-76
2023/12/31 04:13:13;;;;;;;;;;;;;;;6.90;96.23;99636.00;4937028;29;19982;-76
2023/12/31 04:15:41;;;;;;;;;;;;;;;6.85;97.18;99635.81;4927776;29;19923;-76
2023/12/31 04:18:18;;;;;;;;;;;;;;;6.83;97.41;99631.47;4935334;29;19930;-75
2023/12/31 04:20:53;;;;;;;;;;;;;;;6.89;96.68;99637.03;4935650;29;19954;-76
2023/12/31 04:23:39;;;;;;;;;;;;;;;6.96;96.55;99611.97;4916968;29;19930;-75
2023/12/31 04:26:07;;;;;;;;;;;;;;;6.93;97.58;99628.41;4935163;29;19978;-76
2023/12/31 04:28:41;;;;;;;;;;;;;;;6.97;97.05;99608.22;4935163;29;20298;-76
2023/12/31 04:31:15;;;;;;;;;;;;;;;6.99;97.05;99610.72;4917257;29;19923;-76
2023/12/31 04:33:55;;;;;;;;;;;;;;;7.00;96.76;99604.34;4919825;29;19933;-76
2023/12/31 04:36:32;;;;;;;;;;;;;;;7.00;97.62;99584.78;4927987;29;19911;-76
2023/12/31 04:39:03;;;;;;;;;;;;;;;7.06;97.04;99573.25;4940753;29;19950;-76
2023/12/31 04:41:29;;;;;;;;;;;;;;;7.10;96.24;99579.84;4935434;29;19919;-75
2023/12/31 04:43:57;;;;;;;;;;;;;;;7.11;96.97;99566.25;4936179;29;20342;-76
2023/12/31 04:46:22;;;;;;;;;;;;;;;7.06;96.84;99549.97;4935072;29;19923;-76
2023/12/31 04:48:54;;;;;;;;;;;;;;;7.05;97.43;99559.06;4934216;29;19930;-76
2023/12/31 04:51:23;;;;;;;;;;;;;;;7.09;96.60;99557.59;4935844;29;19951;-76
2023/12/31 04:53:48;;;;;;;;;;;;;;;7.00;97.79;99548.16;4935315;29;20009;-76
2023/12/31 04:56:23;;;;;;;;;;;;;;;7.05;97.63;99543.00;4934955;29;19991;-76
2023/12/31 04:58:48;;;;;;;;;;;;;;;7.07;97.41;99534.78;4939137;29;20279;-78
2023/12/31 05:01:14;;;;;;;;;;;;;;;7.04;98.16;99536.00;4936914;29;19939;-76
2023/12/31 05:03:39;;;;;;;;;;;;;;;7.03;97.42;99537.03;4943486;28;19935;-75
2023/12/31 05:06:04;;;;;;;;;;;;;;;7.07;97.60;99522.19;4956990;28;19915;-76
2023/12/31 05:08:29;;;;;;;;;;;;;;;7.09;97.27;99520.13;4942196;29;20014;-75
2023/12/31 05:10:56;;;;;;;;;;;;;;;7.09;97.98;99522.00;4933075;29;19927;-75
2023/12/31 05:13:21;;;;;;;;;;;;;;;7.10;97.45;99504.91;4935900;29;19974;-76
2023/12/31 05:15:46;;;;;;;;;;;;;;;7.13;97.97;99501.84;4935567;29;19926;-75
2023/12/31 05:18:12;;;;;;;;;;;;;;;7.17;97.55;99502.22;4936189;29;19923;-75
2023/12/31 05:20:37;;;;;;;;;;;;;;;7.15;97.79;99507.78;4937453;29;20438;-76
2023/12/31 05:23:02;;;;;;;;;;;;;;;7.16;98.33;99503.25;4937265;29;20399;-76
2023/12/31 05:25:27;;;;;;;;;;;;;;;7.20;97.44;99497.28;4937213;29;20427;-75
2023/12/31 05:27:55;;;;;;;;;;;;;;;7.16;98.07;99487.22;4937624;29;19931;-76
2023/12/31 05:30:22;;;;;;;;;;;;;;;7.18;97.77;99480.59;4936040;29;19923;-76
2023/12/31 05:32:47;;;;;;;;;;;;;;;7.18;97.50;99471.78;4943178;29;19906;-76
2023/12/31 05:35:12;;;;;;;;;;;;;;;7.19;97.90;99470.72;4957403;29;19962;-76
2023/12/31 05:37:38;;;;;;;;;;;;;;;7.27;96.58;99465.16;4955017;23;19927;-76
2023/12/31 05:40:05;;;;;;;;;;;;;;;7.28;96.95;99464.13;4876705;29;20010;-74
2023/12/31 05:42:31;;;;;;;;;;;;;;;7.28;96.23;99443.53;4880478;29;19924;-74
2023/12/31 05:44:56;;;;;;;;;;;;;;;7.28;96.06;99458.75;4878165;29;19931;-75
2023/12/31 05:47:22;;;;;;;;;;;;;;;7.35;95.80;99454.22;4878717;29;19931;-75
2023/12/31 05:49:47;;;;;;;;;;;;;;;7.37;95.40;99462.88;4880386;29;19947;-75
2023/12/31 05:52:12;;;;;;;;;;;;;;;7.40;94.67;99449.06;4877534;29;20348;-74
2023/12/31 05:54:39;;;;;;;;;;;;;;;7.29;96.14;99433.63;4880449;29;19939;-74
2023/12/31 05:57:04;;;;;;;;;;;;;;;7.29;96.26;99439.00;4881730;29;20014;-75
2023/12/31 05:59:29;;;;;;;;;;;;;;;7.32;95.37;99424.38;4880275;29;20011;-74
2023/12/31 06:01:55;;;;;;;;;;;;;;;7.32;94.87;99427.88;4990448;23;20017;-75
2023/12/31 06:04:20;;;;;;;;;;;;;;;7.33;95.29;99415.28;4921482;29;19923;-74
2023/12/31 06:06:45;;;;;;;;;;;;;;;7.35;95.51;99423.94;4936561;29;19978;-75
2023/12/31 06:11:35;;;;;;;;;;;;;;;7.18;95.94;99418.25;4963208;23;20384;-75
2023/12/31 06:14:02;;;;;;;;;;;;;;;7.13;97.12;99413.53;4899070;29;19923;-75
2023/12/31 06:16:28;;;;;;;;;;;;;;;7.16;96.91;99417.63;4899543;29;19976;-75
2023/12/31 06:18:53;;;;;;;;;;;;;;;7.13;96.50;99398.28;4900127;29;19927;-75
2023/12/31 06:21:18;;;;;;;;;;;;;;;7.09;96.79;99407.75;4898976;29;19934;-75
2023/12/31 06:23:43;;;;;;;;;;;;;;;7.09;97.11;99402.41;4899504;29;19924;-75
2023/12/31 06:26:08;;;;;;;;;;;;;;;7.25;95.31;99394.94;4899338;29;19970;-75
2023/12/31 06:28:34;;;;;;;;;;;;;;;7.22;95.80;99392.69;4924407;23;19978;-75
2023/12/31 06:30:59;;;;;;;;;;;;;;;7.27;95.68;99383.00;4936651;29;20419;-79
2023/12/31 06:33:25;;;;;;;;;;;;;;;7.32;95.02;99371.66;4937385;29;19961;-77
2023/12/31 06:35:56;;;;;;;;;;;;;;;7.32;94.44;99371.66;4937123;29;19937;-77
2023/12/31 06:38:22;;;;;;;;;;;;;;;7.30;94.65;99360.34;4937120;29;20288;-77
2023/12/31 06:41:13;;;;;;;;;;;;;;;7.35;94.88;99373.06;5141951;23;20949;-77
2023/12/31 06:43:57;;;;;;;;;;;;;;;7.52;93.42;99373.44;4896105;29;19976;-76
2023/12/31 06:46:42;;;;;;;;;;;;;;;7.50;93.29;99372.81;4896213;29;20018;-75
2023/12/31 06:49:16;;;;;;;;;;;;;;;7.53;92.35;99359.00;4854101;29;20007;-76
2023/12/31 06:51:56;;;;;;;;;;;;;;;7.56;92.80;99358.59;4878357;29;19924;-76
2023/12/31 06:54:46;;;;;;;;;;;;;;;7.60;92.99;99357.09;4878399;29;19920;-76
2023/12/31 06:57:14;;;;;;;;;;;;;;;7.57;93.27;99358.34;4880812;29;19978;-75
2023/12/31 06:59:51;;;;;;;;;;;;;;;7.62;92.22;99363.06;4882576;29;19924;-75
2023/12/31 07:04:50;;;;;;;;;;;;;;;7.59;93.10;99339.38;5121767;23;20360;-75
2023/12/31 07:07:16;;;;;;;;;;;;;;;7.51;92.95;99312.88;4943181;23;19961;-76
2023/12/31 07:09:44;;;;;;;;;;;;;;;7.50;92.52;99322.75;4936232;29;19930;-77
2023/12/31 07:15:46;;;;;;;;;;;;;;;7.61;92.41;99321.25;4900148;29;19958;-76
2023/12/31 07:18:21;;;;;;;;;;;;;;;7.55;92.46;99324.81;4936018;29;20025;-77
2023/12/31 07:21:05;;;;;;;;;;;;;;;7.58;91.73;99311.78;4936837;29;19934;-76
2023/12/31 07:26:07;;;;;;;;;;;;;;;7.47;92.64;99311.66;5111606;23;19927;-77
2023/12/31 07:28:35;;;;;;;;;;;;;;;7.45;93.05;99311.88;4897705;29;19931;-77
2023/12/31 07:31:19;;;;;;;;;;;;;;;7.43;93.30;99279.94;4897191;29;19924;-77
2023/12/31 07:34:06;;;;;;;;;;;;;;;7.47;92.18;99292.91;4880930;29;19924;-77
2023/12/31 07:36:53;;;;;;;;;;;;;;;7.49;92.74;99299.72;4896646;29;19924;-79
2023/12/31 07:39:26;;;;;;;;;;;;;;;7.42;92.90;99289.00;4850726;29;19928;-76
2023/12/31 07:41:57;;;;;;;;;;;;;;;7.47;93.53;99285.72;4898056;29;19999;-77
2023/12/31 07:44:22;;;;;;;;;;;;;;;7.44;93.67;99281.59;4897920;29;19924;-77
2023/12/31 07:46:47;;;;;;;;;;;;;;;7.44;92.93;99273.56;4898220;29;19934;-75
2023/12/31 07:56:58;;;;;;;;;;;;;;;7.64;91.27;99263.75;5054110;23;19927;-75
2023/12/31 07:59:23;;;;;;;;;;;;;;;7.65;92.18;99246.66;4947322;29;19911;-75
2023/12/31 08:01:49;;;;;;;;;;;;;;;7.71;91.05;99265.34;4944406;29;19965;-74
2023/12/31 08:04:14;;;;;;;;;;;;;;;7.72;91.34;99266.16;4936926;23;19931;-75
2023/12/31 08:06:39;;;;;;;;;;;;;;;7.65;92.73;99254.69;4933498;29;20407;-75
2023/12/31 08:11:45;;;;;;;;;;;;;;;7.79;91.61;99242.00;4940053;23;20387;-74
2023/12/31 08:14:29;;;;;;;;;;;;;;;7.87;90.13;99252.47;4934317;29;19994;-74
2023/12/31 08:17:07;;;;;;;;;;;;;;;7.87;90.85;99247.09;4934669;29;20260;-76
2023/12/31 08:19:32;;;;;;;;;;;;;;;7.85;90.73;99238.47;4937064;29;20103;-79
2023/12/31 08:22:13;;;;;;;;;;;;;;;7.91;90.23;99215.31;4934330;29;20256;-76
2023/12/31 08:24:53;;;;;;;;;;;;;;;8.03;89.95;99222.44;4933808;29;20371;-76
2023/12/31 08:27:21;;;;;;;;;;;;;;;8.05;90.03;99238.28;4934436;29;19927;-75
2023/12/31 08:30:05;;;;;;;;;;;;;;;8.03;90.05;99238.50;4936509;29;19937;-76
2023/12/31 08:32:31;;;;;;;;;;;;;;;8.10;89.15;99216.19;5140531;23;20013;-76
2023/12/31 08:34:56;;;;;;;;;;;;;;;8.16;89.10;99231.38;4929117;23;19937;-76
2023/12/31 08:37:21;;;;;;;;;;;;;;;8.12;89.40;99217.59;4932354;29;19933;-76
2023/12/31 08:39:46;;;;;;;;;;;;;;;8.18;89.46;99221.25;4933597;29;19958;-76
2023/12/31 08:42:12;;;;;;;;;;;;;;;8.18;89.48;99219.41;4929125;29;19934;-75
2023/12/31 08:44:37;;;;;;;;;;;;;;;8.24;88.94;99225.75;4940217;23;19931;-76
2023/12/31 08:47:05;;;;;;;;;;;;;;;8.25;89.46;99224.69;4933189;29;19923;-76
2023/12/31 08:49:31;;;;;;;;;;;;;;;8.23;89.47;99209.84;4933126;29;19923;-75
2023/12/31 08:51:56;;;;;;;;;;;;;;;8.22;89.39;99217.09;4934092;29;19923;-76
2023/12/31 08:54:21;;;;;;;;;;;;;;;8.27;89.05;99206.53;4916644;29;20108;-76
2023/12/31 08:56:46;;;;;;;;;;;;;;;8.23;89.22;99202.66;4933921;29;20009;-75
2023/12/31 08:59:11;;;;;;;;;;;;;;;8.26;89.70;99188.81;4944479;28;19923;-75
2023/12/31 09:01:39;;;;;;;;;;;;;;;8.32;88.15;99203.19;4949955;29;19923;-74
2023/12/31 09:04:05;;;;;;;;;;;;;;;8.39;88.28;99195.06;4936931;29;19923;-74
2023/12/31 09:06:30;;;;;;;;;;;;;;;8.40;87.68;99185.97;4916793;29;20410;-74
2023/12/31 09:26:46;;;;;;;;;;;;;;;8.60;85.58;99178.53;4937355;29;19930;-75
2023/12/31 09:29:11;;;;;;;;;;;;;;;8.60;86.27;99178.53;4952651;29;19931;-74
2023/12/31 09:31:37;;;;;;;;;;;;;;;8.66;85.53;99168.78;4956976;29;19954;-74
2023/12/31 09:45:24;;;;;;;;;;;;;;;9.02;83.06;99134.84;3158344;23;19930;-74
2023/12/31 09:47:50;;;;;;;;;;;;;;;9.01;82.99;99148.47;4938017;29;19948;-74
2023/12/31 09:50:18;;;;;;;;;;;;;;;9.04;83.17;99169.50;4936724;29;19915;-75
2023/12/31 09:52:43;;;;;;;;;;;;;;;9.02;83.14;99163.53;4936387;29;20386;-75
2023/12/31 09:55:09;;;;;;;;;;;;;;;9.05;83.17;99155.88;4937707;29;19915;-75
2023/12/31 09:57:34;;;;;;;;;;;;;;;9.02;83.24;99156.31;4919617;29;19969;-75
2023/12/31 10:00:04;;;;;;;;;;;;;;;9.05;83.43;99171.13;4935952;29;20352;-75
2023/12/31 10:02:30;;;;;;;;;;;;;;;9.03;83.22;99162.47;4937859;29;19974;-75
2023/12/31 10:04:55;;;;;;;;;;;;;;;8.98;83.67;99176.59;4936437;29;20001;-75
2023/12/31 10:07:22;;;;;;;;;;;;;;;9.03;82.67;99170.53;4935920;29;19996;-75
2023/12/31 10:09:48;;;;;;;;;;;;;;;9.04;83.94;99164.13;4920025;29;19923;-75
2023/12/31 10:12:13;;;;;;;;;;;;;;;8.98;84.31;99165.06;4919245;29;19981;-76
2023/12/31 10:14:39;;;;;;;;;;;;;;;8.88;84.94;99166.41;4951315;29;19919;-75
2023/12/31 10:17:07;;;;;;;;;;;;;;;8.93;84.50;99174.59;4937090;29;19946;-75
2023/12/31 10:19:35;;;;;;;;;;;;;;;8.98;84.91;99133.66;4935817;29;19925;-75
2023/12/31 10:22:01;;;;;;;;;;;;;;;9.11;83.83;99156.81;4936329;29;20031;-76
2023/12/31 10:24:29;;;;;;;;;;;;;;;9.16;84.08;99162.31;4951021;29;20040;-75
2023/12/31 10:26:56;;;;;;;;;;;;;;;9.11;83.66;99154.13;4936098;29;19919;-75
2023/12/31 10:29:21;;;;;;;;;;;;;;;9.08;84.54;99159.94;4936531;29;19915;-76
2023/12/31 10:31:55;;;;;;;;;;;;;;;9.03;84.81;99168.69;4936607;29;20401;-75
2023/12/31 10:34:20;;;;;;;;;;;;;;;9.05;85.66;99160.41;4936030;29;20429;-75
2023/12/31 10:36:46;;;;;;;;;;;;;;;9.08;86.02;99159.94;4935961;29;19922;-75
2023/12/31 10:39:27;;;;;;;;;;;;;;;9.20;85.96;99170.72;4936336;29;19926;-75
2023/12/31 10:41:55;;;;;;;;;;;;;;;9.27;85.57;99167.94;4935636;29;19922;-75
2023/12/31 10:44:23;;;;;;;;;;;;;;;9.23;85.72;99167.59;4936088;29;19974;-75
2023/12/31 10:46:49;;;;;;;;;;;;;;;9.14;86.08;99159.03;4936545;29;19938;-75
2023/12/31 10:49:14;;;;;;;;;;;;;;;9.08;85.83;99168.00;4950316;29;19938;-75
2023/12/31 10:51:39;;;;;;;;;;;;;;;9.03;86.54;99163.31;4936268;29;19926;-76
2023/12/31 10:54:05;;;;;;;;;;;;;;;9.02;86.42;99156.31;4936944;29;19926;-75
2023/12/31 10:56:30;;;;;;;;;;;;;;;9.06;85.92;99170.09;4916910;29;20295;-75
2023/12/31 10:58:55;;;;;;;;;;;;;;;9.05;85.81;99163.91;4934054;29;20320;-75
2023/12/31 11:01:21;;;;;;;;;;;;;;;9.08;85.75;99158.09;4918127;29;20351;-75
2023/12/31 11:03:47;;;;;;;;;;;;;;;9.06;85.81;99162.03;4934188;29;19923;-74
2023/12/31 11:06:21;;;;;;;;;;;;;;;9.04;85.56;99175.69;4935068;29;20391;-73
2023/12/31 11:08:46;;;;;;;;;;;;;;;8.94;85.95;99165.50;4925167;29;20163;-74
2023/12/31 11:11:12;;;;;;;;;;;;;;;8.83;85.82;99168.94;4947780;29;20445;-75
2023/12/31 11:13:38;;;;;;;;;;;;;;;8.71;86.61;99149.31;4935873;29;19942;-75
2023/12/31 11:16:07;;;;;;;;;;;;;;;8.66;87.90;99147.31;4917375;29;19929;-75
2023/12/31 11:18:36;;;;;;;;;;;;;;;8.59;88.05;99162.66;4919297;29;19946;-73
2023/12/31 11:21:07;;;;;;;;;;;;;;;8.56;89.20;99163.13;4919520;29;19970;-74
2023/12/31 11:23:51;;;;;;;;;;;;;;;8.46;88.97;99167.13;4935708;29;19923;-75
2023/12/31 11:26:16;;;;;;;;;;;;;;;8.47;89.44;99166.06;4936729;29;19922;-75
2023/12/31 11:28:48;;;;;;;;;;;;;;;8.43;90.43;99174.81;4919908;29;20014;-74
2023/12/31 11:31:13;;;;;;;;;;;;;;;8.39;90.23;99169.06;4935601;29;20275;-75
2023/12/31 11:33:39;;;;;;;;;;;;;;;8.38;89.63;99156.72;4935196;29;19923;-75
2023/12/31 11:36:07;;;;;;;;;;;;;;;8.42;89.44;99154.41;4935970;29;19951;-75
2023/12/31 11:38:51;;;;;;;;;;;;;;;8.42;90.08;99151.72;4936052;29;19918;-75
2023/12/31 11:41:20;;;;;;;;;;;;;;;8.44;90.00;99155.78;4935561;29;19930;-74
2023/12/31 11:43:45;;;;;;;;;;;;;;;8.39;90.21;99160.19;4935102;29;20050;-75
2023/12/31 11:46:11;;;;;;;;;;;;;;;8.39;90.19;99152.97;4935963;29;19981;-74
2023/12/31 11:48:36;;;;;;;;;;;;;;;8.40;89.17;99109.00;4936786;29;19923;-74
2023/12/31 11:51:03;;;;;;;;;;;;;;;8.37;88.35;99138.97;4917663;29;19930;-74
2023/12/31 11:53:30;;;;;;;;;;;;;;;8.31;88.30;99134.50;4937757;29;19923;-74
2023/12/31 11:55:59;;;;;;;;;;;;;;;7.84;95.06;99161.81;4939589;29;20013;-73
2023/12/31 11:58:28;;;;;;;;;;;;;;;7.59;97.67;99166.16;4954715;28;19929;-74
2023/12/31 12:00:54;;;;;;;;;;;;;;;7.51;98.95;99162.91;4935611;29;19918;-73
2023/12/31 12:03:19;;;;;;;;;;;;;;;7.53;99.59;99160.84;4934731;29;20034;-72
2023/12/31 12:05:48;;;;;;;;;;;;;;;7.51;99.51;99162.91;4928410;29;19930;-75
2023/12/31 12:08:13;;;;;;;;;;;;;;;7.48;100.00;99155.31;4927778;29;19945;-74
2023/12/31 12:10:40;;;;;;;;;;;;;;;7.50;100.00;99161.28;4922060;29;20458;-74
2023/12/31 12:13:17;;;;;;;;;;;;;;;7.60;100.00;99156.25;5128016;27;19928;-73
2023/12/31 12:15:43;;;;;;;;;;;;;;;7.62;100.00;99158.72;5108192;28;19980;-74
2023/12/31 12:18:15;;;;;;;;;;;;;;;7.61;100.00;99165.09;5104875;28;20415;-74
2023/12/31 12:20:41;;;;;;;;;;;;;;;7.60;100.00;99158.91;5107444;28;19966;-74
2023/12/31 12:23:07;;;;;;;;;;;;;;;7.63;100.00;99166.50;5129662;28;19944;-74
2023/12/31 12:25:32;;;;;;;;;;;;;;;7.62;99.77;99170.22;5110963;28;20339;-74
2023/12/31 12:27:57;;;;;;;;;;;;;;;7.61;99.33;99173.13;5122702;28;19935;-74
2023/12/31 12:30:26;;;;;;;;;;;;;;;7.59;99.41;99178.69;5133602;28;19952;-73
2023/12/31 12:32:51;;;;;;;;;;;;;;;7.58;100.00;99183.25;5108366;28;19920;-74
2023/12/31 12:35:17;;;;;;;;;;;;;;;7.44;100.00;99169.13;5102467;28;19939;-74
2023/12/31 12:37:42;;;;;;;;;;;;;;;7.62;100.00;99175.59;5108485;28;19920;-74
2023/12/31 12:40:13;;;;;;;;;;;;;;;7.59;100.00;99176.03;5120361;28;19924;-74
2023/12/31 12:42:39;;;;;;;;;;;;;;;7.50;100.00;99166.63;5088311;28;20359;-74
2023/12/31 12:45:05;;;;;;;;;;;;;;;7.48;100.00;99174.06;5107562;28;20016;-74
2023/12/31 12:47:30;;;;;;;;;;;;;;;7.56;100.00;99173.81;5104753;28;20014;-74
2023/12/31 12:49:57;;;;;;;;;;;;;;;7.65;100.00;99175.16;5098630;28;20023;-74
2023/12/31 12:52:22;;;;;;;;;;;;;;;7.72;100.00;99151.81;5106610;28;20002;-73
2023/12/31 12:54:47;;;;;;;;;;;;;;;7.72;99.60;99159.84;5108799;28;20421;-75
2023/12/31 12:57:12;;;;;;;;;;;;;;;7.84;98.36;99168.00;5121394;27;19943;-73
2023/12/31 12:59:38;;;;;;;;;;;;;;;7.89;96.31;99159.28;5119861;28;19915;-74
2023/12/31 13:02:03;;;;;;;;;;;;;;;7.88;97.33;99158.44;5117078;28;19998;-73
2023/12/31 13:04:28;;;;;;;;;;;;;;;7.79;96.33;99158.97;5096304;28;20339;-74
2023/12/31 13:06:57;;;;;;;;;;;;;;;7.79;97.08;99169.69;5106223;28;19924;-74
2023/12/31 13:09:23;;;;;;;;;;;;;;;7.69;95.90;99146.91;5113256;28;19920;-74
2023/12/31 13:11:51;;;;;;;;;;;;;;;7.77;96.58;99161.88;5100708;28;19928;-75
2023/12/31 13:14:16;;;;;;;;;;;;;;;7.70;95.43;99163.78;5106849;28;19966;-75
2023/12/31 13:16:41;;;;;;;;;;;;;;;7.61;96.16;99179.31;5108131;28;19916;-74
2023/12/31 13:19:07;;;;;;;;;;;;;;;7.63;95.29;99184.47;5109453;28;19920;-74
2023/12/31 13:21:32;;;;;;;;;;;;;;;7.55;95.04;99172.16;5123633;28;19922;-73
2023/12/31 13:23:57;;;;;;;;;;;;;;;7.53;93.49;99184.94;5112864;27;19923;-73
2023/12/31 13:26:25;;;;;;;;;;;;;;;8.14;91.15;99198.59;5128244;28;19920;-73
2023/12/31 13:28:51;;;;;;;;;;;;;;;9.12;82.53;99197.88;5137907;28;19920;-73
2023/12/31 13:31:17;;;;;;;;;;;;;;;9.19;80.38;99201.31;5126380;28;19965;-73
2023/12/31 13:33:46;;;;;;;;;;;;;;;9.39;80.42;99206.38;5089297;28;20383;-74
2023/12/31 13:36:11;;;;;;;;;;;;;;;9.96;77.13;99213.09;5097158;28;20033;-74
2023/12/31 13:38:36;;;;;;;;;;;;;;;10.11;77.77;99224.22;5099592;28;19932;-73
2023/12/31 13:41:01;;;;;;;;;;;;;;;10.10;75.92;99224.47;5079477;28;19969;-73
2023/12/31 13:43:27;;;;;;;;;;;;;;;9.83;76.98;99224.91;5101612;28;19942;-74
2023/12/31 13:45:52;;;;;;;;;;;;;;;9.96;75.77;99222.00;5097459;28;19924;-74
2023/12/31 13:48:17;;;;;;;;;;;;;;;9.91;75.14;99184.25;5092890;28;20379;-74
2023/12/31 13:50:43;;;;;;;;;;;;;;;10.13;73.82;99219.41;5102597;28;20370;-73
2023/12/31 13:53:28;;;;;;;;;;;;;;;10.28;72.66;99218.13;5093018;28;19990;-73
2023/12/31 13:55:53;;;;;;;;;;;;;;;9.66;75.44;99224.78;5096460;28;19915;-74
2023/12/31 13:58:19;;;;;;;;;;;;;;;9.91;73.80;99216.50;5099233;28;20061;-74
2023/12/31 14:00:50;;;;;;;;;;;;;;;9.53;75.89;99226.59;5079660;28;19969;-74
2023/12/31 14:03:16;;;;;;;;;;;;;;;9.51;75.66;99220.66;5095305;28;19947;-74
2023/12/31 14:05:41;;;;;;;;;;;;;;;9.20;76.86;99222.53;5090470;28;19943;-74
2023/12/31 14:08:06;;;;;;;;;;;;;;;8.98;78.19;99230.28;5088025;28;19999;-73
2023/12/31 14:10:31;;;;;;;;;;;;;;;8.86;79.11;99216.00;5088321;28;20298;-73
2023/12/31 14:12:57;;;;;;;;;;;;;;;8.73;80.26;99223.16;5083857;28;20359;-73
2023/12/31 14:15:22;;;;;;;;;;;;;;;8.90;78.61;99218.00;5092312;28;19980;-73
2023/12/31 14:17:48;;;;;;;;;;;;;;;8.69;79.44;99219.28;5082029;28;19924;-73
2023/12/31 14:20:13;;;;;;;;;;;;;;;8.36;82.24;99239.22;5090542;28;20007;-73
2023/12/31 14:22:38;;;;;;;;;;;;;;;8.09;83.08;99228.75;5097443;28;19924;-73
2023/12/31 14:25:03;;;;;;;;;;;;;;;7.85;85.58;99233.09;5096616;28;20389;-73
2023/12/31 14:27:29;;;;;;;;;;;;;;;7.67;85.47;99231.19;5100442;28;20346;-73
2023/12/31 14:29:54;;;;;;;;;;;;;;;7.55;86.51;99234.56;5104365;28;20363;-73
2023/12/31 14:32:19;;;;;;;;;;;;;;;7.46;87.78;99240.38;5091057;28;20348;-73
2023/12/31 14:34:44;;;;;;;;;;;;;;;7.43;88.50;99226.41;5092296;28;20316;-73
2023/12/31 14:37:10;;;;;;;;;;;;;;;7.36;87.63;99236.34;5100674;28;19924;-73
2023/12/31 14:39:38;;;;;;;;;;;;;;;7.32;88.13;99239.69;5089801;28;19924;-73
2023/12/31 14:42:03;;;;;;;;;;;;;;;7.30;88.05;99231.03;5102915;28;19953;-72
2023/12/31 14:44:29;;;;;;;;;;;;;;;7.24;87.47;99238.88;5092709;28;20275;-72
2023/12/31 14:46:57;;;;;;;;;;;;;;;7.26;88.59;99236.81;5090804;28;20105;-73
2023/12/31 14:49:22;;;;;;;;;;;;;;;7.24;88.26;99246.09;5098243;28;19961;-72
2023/12/31 14:51:49;;;;;;;;;;;;;;;7.24;88.43;99227.34;5111909;28;20026;-74
2023/12/31 14:54:14;;;;;;;;;;;;;;;7.21;88.39;99243.84;5097244;28;19984;-72
2023/12/31 14:56:39;;;;;;;;;;;;;;;7.17;88.74;99237.28;5098648;28;20042;-72
2023/12/31 14:59:05;;;;;;;;;;;;;;;7.12;88.07;99236.06;5096174;28;20013;-73
2023/12/31 15:01:30;;;;;;;;;;;;;;;7.07;88.84;99243.91;5090571;28;19963;-73
2023/12/31 15:03:57;;;;;;;;;;;;;;;7.02;88.30;99251.78;5090968;28;19920;-74